This is the latest recevied weather packets stored in our database for station/object VA7IS. If no packets are shown the sender has not sent any weather packets the latest 10 day(s).
| Time | Temp. | Humidity | Pressure | Rain* | Wind** | Luminosity | Snow |
|---|---|---|---|---|---|---|---|
| 1777603505 | 17.78° C | 54% | 1014.5 hPa | 0 mm | - | - | - |
| 1777603204 | 18.33° C | 54% | 1014.5 hPa | 0 mm | - | - | - |
| 1777602904 | 18.33° C | 54% | 1014.5 hPa | 0 mm | - | - | - |
| 1777602304 | 18.89° C | 54% | 1014.6 hPa | 0 mm | - | - | - |
| 1777601705 | 20° C | 54% | 1014.6 hPa | 0 mm | - | - | - |
| 1777599004 | 21.67° C | 49% | 1015 hPa | 0 mm | - | - | - |
| 1777596305 | 22.22° C | 46% | 1015.5 hPa | 0 mm | - | - | - |
| 1777595405 | 22.22° C | 46% | 1015.6 hPa | 0 mm | - | - | - |
| 1777594804 | 22.78° C | 46% | 1015.6 hPa | 0 mm | - | - | - |
| 1777593605 | 22.22° C | 45% | 1015.8 hPa | 0 mm | - | - | - |
| 1777592704 | 22.22° C | 45% | 1016 hPa | 0 mm | - | - | - |
| 1777592104 | 22.78° C | 45% | 1016.1 hPa | 0 mm | - | - | - |
| 1777591805 | 22.78° C | 45% | 1016.1 hPa | 0 mm | - | - | - |
| 1777591204 | 22.78° C | 44% | 1016.3 hPa | 0 mm | - | - | - |
| 1777590004 | 22.22° C | 46% | 1016.8 hPa | 0 mm | - | - | - |
| 1777587904 | 22.78° C | 46% | 1017.1 hPa | 0 mm | - | - | - |
| 1777585804 | 22.22° C | 46% | 1017.5 hPa | 0 mm | - | - | - |
| 1777579205 | 19.44° C | 54% | 1018.6 hPa | 0 mm | - | - | - |
| 1777578604 | 19.44° C | 53% | 1018.8 hPa | 0 mm | - | - | - |
| 1777577404 | 20° C | 53% | 1019 hPa | 0 mm | - | - | - |
| 1777577104 | 18.89° C | 54% | 1019 hPa | 0 mm | - | - | - |
| 1777575904 | 19.44° C | 53% | 1019.1 hPa | 0 mm | - | - | - |
| 1777574704 | 18.89° C | 53% | 1019.2 hPa | 0 mm | - | - | - |
| 1777573804 | 18.89° C | 53% | 1019.4 hPa | 0 mm | - | - | - |
| 1777572004 | 17.78° C | 54% | 1019.7 hPa | 0 mm | - | - | - |
* Rain latest hour (hover to see other rain measurements)
** Current wind speed in m/s (hover to see current wind gust speed)